Weather History for Mason, MI

Change the Weather History Date:

Wednesday, September 18, 2013

  Actual Average (KLAN) Record (KLAN)
Temperature  
Mean Temperature 60 °F 61 °F  
Max Temperature 75 °F 72 °F 93 °F (1955)
Min Temperature 46 °F 50 °F 25 °F (1863)
Degree Days  
Heating Degree Days 4 6  
Month to date heating degree days 61  
Since 1 July heating degree days 96  
Cooling Degree Days 0 2  
Month to date cooling degree days 49  
Year to date cooling degree days 606  
Growing Degree Days 10 (Base 50)    
Moisture  
Dew Point 50 °F    
Average Humidity 69    
Maximum Humidity 90    
Minimum Humidity 42    
Precipitation  
Precipitation 0.00 in 0.13 in 0.89 in (1949)
Month to date precipitation 2.07  
Year to date precipitation 23.16  
Snow  
Snow 0.00 in 0.00 in 0.00 in ()
Month to date snowfall 0.0  
Since 1 July snowfall 0.0  
Since 1 September snowfall 0.0  
Snow Depth -    
Sea Level Pressure  
Sea Level Pressure 30.12 in    
Wind  
Wind Speed 3 mph (SSE)    
Max Wind Speed 10 mph    
Max Gust Speed 17 mph    
Visibility 10 miles    
Events      
T = Trace of Precipitation, MM = Missing Value Source: NWS Daily Summary

Daily Weather History Graph

Daily Weather History Graph

Search for Another Location

Airport:

Trip Planner

Search our weather history database for the weather conditions in past years. The results will help you decide how hot, cold, wet, or windy it might be!

Date:

Astronomy

Sep. 18, 2013 Rise Set
Actual Time 7:21 AM EDT 7:41 PM EDT
Civil Twilight 6:52 AM EDT 8:09 PM EDT
Nautical Twilight 6:19 AM EDT 8:42 PM EDT
Astronomical Twilight 5:45 AM EDT 9:16 PM EDT
Moon 7:03 PM EDT (9/18) 6:22 AM EDT (9/18)
Length of Visible Light 13h 17m
Length of Day
12h 20m
Waxing Gibbous, 99% of the Moon is Illuminated
Sep 18
Waxing Gibbous
Sep 19
Full
Sep 26
Last Quarter
Oct 4
New
Oct 11
First Quarter

Hourly Weather History & Observations

Time (EDT) Temp. Dew Point Humidity Pressure Visibility Wind Dir Wind Speed Gust Speed Precip Events Conditions
12:14 AM 48.2 °F 42.8 °F 82% 30.22 in 10.0 mi Calm Calm - N/A   Clear
12:34 AM 49.1 °F 42.8 °F 79% 30.22 in 10.0 mi Calm Calm - N/A   Clear
12:54 AM 47.3 °F 42.3 °F 83% 30.21 in 10.0 mi SE 3.5 mph - N/A   Clear
1:13 AM 47.7 °F 42.3 °F 82% 30.21 in 10.0 mi Calm Calm - N/A   Clear
1:34 AM 48.2 °F 43.0 °F 82% 30.20 in 10.0 mi Calm Calm - N/A   Clear
1:54 AM 48.2 °F 43.0 °F 82% 30.20 in 10.0 mi Calm Calm - N/A   Clear
2:13 AM 48.2 °F 43.3 °F 83% 30.19 in 10.0 mi Calm Calm - N/A   Clear
2:34 AM 47.5 °F 43.0 °F 84% 30.19 in 10.0 mi Calm Calm - N/A   Clear
2:54 AM 46.8 °F 43.2 °F 87% 30.19 in 10.0 mi Calm Calm - N/A   Clear
3:14 AM 48.0 °F 44.1 °F 86% 30.18 in 10.0 mi Calm Calm - N/A   Clear
3:34 AM 46.8 °F 43.7 °F 89% 30.18 in 10.0 mi Calm Calm - N/A   Clear
3:54 AM 46.9 °F 43.9 °F 89% 30.17 in 10.0 mi Calm Calm - N/A   Clear
4:14 AM 47.7 °F 44.6 °F 89% 30.17 in 10.0 mi Calm Calm - N/A   Clear
4:34 AM 49.3 °F 46.0 °F 89% 30.17 in 10.0 mi SSE 3.5 mph - N/A   Clear
4:54 AM 49.6 °F 46.4 °F 89% 30.17 in 10.0 mi SSE 3.5 mph - N/A   Clear
5:14 AM 49.5 °F 46.6 °F 90% 30.17 in 10.0 mi SSE 3.5 mph - N/A   Clear
5:34 AM 50.0 °F 47.3 °F 90% 30.16 in 10.0 mi SSE 4.6 mph - N/A   Clear
5:53 AM 50.2 °F 47.3 °F 90% 30.16 in 10.0 mi SSE 3.5 mph - N/A   Clear
6:14 AM 50.2 °F 47.5 °F 90% 30.16 in 10.0 mi SSE 3.5 mph - N/A   Clear
6:34 AM 50.4 °F 47.5 °F 90% 30.16 in 10.0 mi SSE 3.5 mph - N/A   Clear
6:54 AM 50.2 °F 47.3 °F 90% 30.16 in 10.0 mi SSE 3.5 mph - N/A   Clear
7:14 AM 50.7 °F 47.5 °F 89% 30.16 in 10.0 mi SSE 4.6 mph - N/A   Clear
7:34 AM 50.7 °F 47.3 °F 88% 30.16 in 10.0 mi SSE 4.6 mph - N/A   Clear
7:54 AM 51.4 °F 47.8 °F 87% 30.17 in 10.0 mi SSE 5.8 mph - N/A   Clear
8:14 AM 52.5 °F 48.4 °F 86% 30.16 in 10.0 mi SSE 5.8 mph - N/A   Clear
8:34 AM 53.2 °F 49.1 °F 86% 30.16 in 10.0 mi South 5.8 mph - N/A   Clear
8:54 AM 53.6 °F 49.1 °F 85% 30.16 in 10.0 mi SSE 4.6 mph - N/A   Clear
9:14 AM 54.3 °F 49.5 °F 84% 30.17 in 10.0 mi SSE 4.6 mph - N/A   Clear
9:34 AM 56.1 °F 50.5 °F 82% 30.17 in 10.0 mi Calm Calm - N/A   Clear
9:54 AM 59.4 °F 51.8 °F 76% 30.17 in 10.0 mi SSE 4.6 mph - N/A   Clear
10:14 AM 62.2 °F 52.0 °F 69% 30.17 in 10.0 mi SSE 5.8 mph - N/A   Clear
10:34 AM 65.3 °F 53.1 °F 65% 30.16 in 10.0 mi Calm Calm - N/A   Clear
10:54 AM 66.9 °F 52.5 °F 60% 30.16 in 10.0 mi South 4.6 mph - N/A   Clear
11:14 AM 68.0 °F 52.9 °F 58% 30.16 in 10.0 mi South 3.5 mph - N/A   Clear
11:34 AM 69.1 °F 53.4 °F 57% 30.15 in 10.0 mi Calm Calm - N/A   Clear
11:54 AM 70.5 °F 53.6 °F 55% 30.15 in 10.0 mi SW 5.8 mph - N/A   Clear
12:14 PM 71.8 °F 54.3 °F 54% 30.14 in 10.0 mi SSE 5.8 mph - N/A   Clear
12:34 PM 72.5 °F 53.8 °F 52% 30.14 in 10.0 mi SSE 4.6 mph - N/A   Clear
12:54 PM 73.6 °F 53.4 °F 49% 30.13 in 10.0 mi South 3.5 mph - N/A   Clear
1:14 PM 73.8 °F 52.5 °F 47% 30.12 in 10.0 mi South 8.1 mph - N/A   Clear
1:34 PM 74.8 °F 52.3 °F 45% 30.11 in 10.0 mi South 6.9 mph - N/A   Clear
1:54 PM 74.8 °F 52.0 °F 45% 30.11 in 10.0 mi SSE 8.1 mph - N/A   Clear
2:13 PM 75.2 °F 52.3 °F 45% 30.10 in 10.0 mi SSE 9.2 mph 16.1 mph N/A   Clear
2:34 PM 73.4 °F 51.8 °F 47% 30.10 in 10.0 mi South 5.8 mph - N/A   Clear
2:54 PM 73.6 °F 52.0 °F 47% 30.09 in 10.0 mi South 4.6 mph - N/A   Clear
3:14 PM 73.6 °F 52.3 °F 47% 30.09 in 10.0 mi South 6.9 mph - N/A   Clear
3:34 PM 75.4 °F 53.2 °F 46% 30.08 in 10.0 mi SSE 10.4 mph - N/A   Clear
3:55 PM 75.4 °F 53.6 °F 47% 30.07 in 10.0 mi South 6.9 mph - N/A   Clear
4:14 PM 75.4 °F 52.3 °F 44% 30.07 in 10.0 mi SSE 9.2 mph - N/A   Clear
4:34 PM 75.2 °F 52.0 °F 44% 30.06 in 10.0 mi South 9.2 mph - N/A   Clear
4:55 PM 75.7 °F 51.4 °F 43% 30.06 in 10.0 mi South 8.1 mph - N/A   Clear
5:14 PM 75.2 °F 50.9 °F 42% 30.05 in 10.0 mi South 6.9 mph 17.3 mph N/A   Clear
5:34 PM 75.2 °F 50.7 °F 42% 30.05 in 10.0 mi South 6.9 mph - N/A   Clear
5:55 PM 74.5 °F 50.7 °F 43% 30.04 in 10.0 mi SSE 5.8 mph - N/A   Clear
6:14 PM 73.8 °F 51.3 °F 45% 30.04 in 10.0 mi South 5.8 mph - N/A   Clear
6:34 PM 73.0 °F 52.0 °F 48% 30.04 in 10.0 mi SSE 5.8 mph - N/A   Clear
6:54 PM 70.9 °F 52.3 °F 52% 30.04 in 10.0 mi SSE 3.5 mph - N/A   Clear
7:14 PM 68.7 °F 53.1 °F 57% 30.04 in 10.0 mi Calm Calm - N/A   Clear
7:35 PM 66.0 °F 54.0 °F 65% 30.04 in 10.0 mi SE 3.5 mph - N/A   Clear
7:54 PM 64.8 °F 53.8 °F 68% 30.03 in 10.0 mi SE 3.5 mph - N/A   Clear
8:14 PM 65.3 °F 53.6 °F 66% 30.03 in 10.0 mi ESE 3.5 mph - N/A   Clear
8:35 PM 65.3 °F 53.2 °F 65% 30.04 in 10.0 mi SE 3.5 mph - N/A   Clear
8:54 PM 65.1 °F 53.2 °F 65% 30.04 in 10.0 mi SE 4.6 mph - N/A   Scattered Clouds
9:14 PM 65.7 °F 52.9 °F 63% 30.04 in 10.0 mi SE 4.6 mph - N/A   Clear
9:35 PM 65.5 °F 52.7 °F 63% 30.05 in 10.0 mi SE 8.1 mph - N/A   Clear
9:54 PM 65.3 °F 54.0 °F 67% 30.04 in 10.0 mi SE 5.8 mph - N/A   Clear
10:14 PM 64.4 °F 54.9 °F 71% 30.05 in 10.0 mi SSE 4.6 mph - N/A   Clear
10:35 PM 63.5 °F 55.4 °F 75% 30.05 in 10.0 mi SSE 4.6 mph - N/A   Clear
10:54 PM 63.3 °F 55.8 °F 76% 30.05 in 10.0 mi SSE 6.9 mph - N/A   Clear
11:14 PM 63.0 °F 56.3 °F 79% 30.05 in 10.0 mi SSE 5.8 mph - N/A   Clear
11:34 PM 62.6 °F 56.3 °F 80% 30.05 in 10.0 mi SSE 3.5 mph - N/A   Clear
11:54 PM 61.9 °F 56.5 °F 82% 30.05 in 10.0 mi SSE 4.6 mph - N/A   Clear